createdAt,value
2023-04-26T00:00:30.312Z,101734.91
2023-04-26T00:02:32.789Z,101735.81
2023-04-26T00:04:35.279Z,101729.75
2023-04-26T00:06:37.400Z,101734.13
2023-04-26T00:08:39.045Z,101734.09
2023-04-26T00:10:40.792Z,101737.63
2023-04-26T00:12:42.648Z,101733.28
2023-04-26T00:14:44.433Z,101734.16
2023-04-26T00:16:46.298Z,101736.81
2023-04-26T00:18:49.287Z,101735.91
2023-04-26T00:20:51.311Z,101739.38
2023-04-26T00:22:53.158Z,101738.50
2023-04-26T00:24:54.737Z,101735.88
2023-04-26T00:26:56.302Z,101736.72
2023-04-26T00:28:57.993Z,101732.38
2023-04-26T00:30:59.630Z,101738.44
2023-04-26T00:33:01.260Z,101743.59
2023-04-26T00:37:08.541Z,101742.63
2023-04-26T00:39:10.498Z,101739.13
2023-04-26T00:41:12.142Z,101734.72
2023-04-26T00:43:13.595Z,101738.16
2023-04-26T00:45:15.251Z,101737.22
2023-04-26T00:47:16.783Z,101734.56
2023-04-26T00:49:21.721Z,101730.16
2023-04-26T00:51:23.325Z,101741.44
2023-04-26T00:53:25.100Z,101738.78
2023-04-26T00:55:27.345Z,101740.47
2023-04-26T00:57:28.956Z,101748.28
2023-04-26T00:59:30.567Z,101746.50
2023-04-26T01:01:32.559Z,101745.59
2023-04-26T01:03:34.589Z,101734.25
2023-04-26T01:05:36.763Z,101736.00
2023-04-26T01:07:41.046Z,101733.38
2023-04-26T01:09:44.059Z,101737.72
2023-04-26T01:11:46.041Z,101738.59
2023-04-26T01:13:48.262Z,101737.72
2023-04-26T01:15:49.745Z,101744.66
2023-04-26T01:17:52.398Z,101741.16
2023-04-26T01:19:54.106Z,101750.72
2023-04-26T01:21:55.587Z,101747.22
2023-04-26T01:23:57.018Z,101751.56
2023-04-26T01:25:58.559Z,101760.28
2023-04-26T01:28:00.175Z,101758.56
2023-04-26T01:30:02.103Z,101769.94
2023-04-26T01:32:03.814Z,101765.59
2023-04-26T01:34:05.878Z,101766.56
2023-04-26T01:36:10.751Z,101762.25
2023-04-26T01:38:14.516Z,101757.91
2023-04-26T01:40:16.187Z,101756.16
2023-04-26T01:42:17.770Z,101754.41
2023-04-26T01:44:19.332Z,101753.50
2023-04-26T01:46:20.965Z,101752.66
2023-04-26T01:48:22.447Z,101757.03
2023-04-26T01:50:23.916Z,101744.88
2023-04-26T01:52:25.414Z,101751.84
2023-04-26T01:54:26.866Z,101751.00
2023-04-26T01:56:28.511Z,101743.22
2023-04-26T01:58:30.355Z,101739.78
2023-04-26T02:00:33.680Z,101742.41
2023-04-26T02:02:35.218Z,101743.28
2023-04-26T02:04:37.035Z,101738.97
2023-04-26T02:06:38.501Z,101738.97
2023-04-26T02:08:40.033Z,101739.88
2023-04-26T02:10:41.716Z,101742.50
2023-04-26T02:12:43.170Z,101751.22
2023-04-26T02:14:44.656Z,101751.22
2023-04-26T02:16:46.128Z,101745.97
2023-04-26T02:18:49.858Z,101745.94
2023-04-26T02:20:51.678Z,101745.03
2023-04-26T02:22:53.208Z,101748.50
2023-04-26T02:24:54.640Z,101751.09
2023-04-26T02:26:56.479Z,101745.78
2023-04-26T02:28:57.923Z,101744.88
2023-04-26T02:30:59.750Z,101750.91
2023-04-26T02:33:02.289Z,101749.13
2023-04-26T02:35:05.258Z,101753.38
2023-04-26T02:37:07.487Z,101756.81
2023-04-26T02:39:08.975Z,101743.72
2023-04-26T02:41:10.500Z,101743.72
2023-04-26T02:43:12.032Z,101744.56
2023-04-26T02:45:13.567Z,101743.66
2023-04-26T02:47:16.634Z,101747.13
2023-04-26T02:49:18.128Z,101749.72
2023-04-26T02:51:19.556Z,101741.84
2023-04-26T02:53:21.686Z,101738.34
2023-04-26T02:55:23.149Z,101742.63
2023-04-26T02:57:24.625Z,101750.44
2023-04-26T02:59:26.063Z,101744.28
2023-04-26T03:01:27.639Z,101743.34
2023-04-26T03:03:29.292Z,101747.66
2023-04-26T03:05:30.952Z,101744.97
2023-04-26T03:07:33.020Z,101743.19
2023-04-26T03:09:34.560Z,101745.78
2023-04-26T03:11:36.017Z,101749.25
2023-04-26T03:13:37.554Z,101755.31
2023-04-26T03:15:39.003Z,101749.19
2023-04-26T03:17:40.558Z,101751.78
2023-04-26T03:19:42.073Z,101756.97
2023-04-26T03:21:43.518Z,101758.72
2023-04-26T03:23:44.995Z,101759.56
2023-04-26T03:25:46.944Z,101756.97
2023-04-26T03:27:48.482Z,101758.72
2023-04-26T03:29:49.971Z,101764.78
2023-04-26T03:31:51.437Z,101750.84
2023-04-26T03:33:52.929Z,101761.28
2023-04-26T03:35:54.397Z,101756.03
2023-04-26T03:37:58.477Z,101757.75
2023-04-26T03:40:00.211Z,101753.38
2023-04-26T03:42:01.909Z,101749.88
2023-04-26T03:44:03.494Z,101755.91
2023-04-26T03:46:05.660Z,101752.38
2023-04-26T03:48:07.283Z,101749.75
2023-04-26T03:50:09.199Z,101760.16
2023-04-26T03:52:11.108Z,101749.72
2023-04-26T03:54:12.711Z,101750.59
2023-04-26T03:56:14.461Z,101749.69
2023-04-26T03:58:15.932Z,101745.31
2023-04-26T04:00:17.513Z,101741.88
2023-04-26T04:02:19.011Z,101740.97
2023-04-26T04:04:20.689Z,101746.19
2023-04-26T04:06:22.322Z,101750.50
2023-04-26T04:08:23.834Z,101748.78
2023-04-26T04:10:25.822Z,101739.25
2023-04-26T04:12:27.346Z,101745.28
2023-04-26T04:14:28.830Z,101740.06
2023-04-26T04:16:30.348Z,101752.22
2023-04-26T04:18:31.821Z,101749.50
2023-04-26T04:20:33.299Z,101752.25
2023-04-26T04:22:34.888Z,101752.28
2023-04-26T04:24:37.061Z,101755.75
2023-04-26T04:26:39.100Z,101753.97
2023-04-26T04:28:43.099Z,101760.88
2023-04-26T04:30:46.301Z,101757.41
2023-04-26T04:32:47.802Z,101766.09
2023-04-26T04:34:50.263Z,101766.16
2023-04-26T04:36:51.778Z,101763.63
2023-04-26T04:38:53.682Z,101760.25
2023-04-26T04:40:55.381Z,101750.81
2023-04-26T04:42:56.826Z,101750.09
2023-04-26T04:44:59.605Z,101755.44
2023-04-26T04:47:01.133Z,101755.66
2023-04-26T04:49:03.171Z,101761.03
2023-04-26T04:51:05.076Z,101765.41
2023-04-26T04:53:06.562Z,101766.25
2023-04-26T04:55:08.439Z,101760.16
2023-04-26T04:57:10.394Z,101764.50
2023-04-26T04:59:12.623Z,101782.81
2023-04-26T05:01:15.096Z,101775.06
2023-04-26T05:03:16.887Z,101774.22
2023-04-26T05:05:18.658Z,101777.81
2023-04-26T05:07:20.174Z,101777.88
2023-04-26T05:09:21.698Z,101774.50
2023-04-26T05:11:23.264Z,101770.31
2023-04-26T05:13:24.791Z,101769.56
2023-04-26T05:15:26.470Z,101771.47
2023-04-26T05:17:28.014Z,101771.63
2023-04-26T05:19:29.545Z,101765.66
2023-04-26T05:21:32.256Z,101778.81
2023-04-26T05:23:34.464Z,101763.25
2023-04-26T05:25:41.226Z,101772.06
2023-04-26T05:27:42.680Z,101766.06
2023-04-26T05:29:44.196Z,101769.66
2023-04-26T05:31:45.833Z,101766.22
2023-04-26T05:33:47.740Z,101778.47
2023-04-26T05:35:49.240Z,101775.00
2023-04-26T05:37:50.722Z,101774.16
2023-04-26T05:39:52.233Z,101770.69
2023-04-26T05:41:53.722Z,101767.25
2023-04-26T05:43:55.560Z,101775.09
2023-04-26T05:45:57.289Z,101780.34
2023-04-26T05:47:58.845Z,101784.72
2023-04-26T05:50:00.499Z,101785.63
2023-04-26T05:52:03.625Z,101785.66
2023-04-26T05:54:05.261Z,101779.59
2023-04-26T05:56:07.232Z,101784.91
2023-04-26T05:58:09.402Z,101783.19
2023-04-26T06:00:12.268Z,101787.63
2023-04-26T06:02:13.905Z,101786.88
2023-04-26T06:04:15.705Z,101789.50
2023-04-26T06:06:18.483Z,101786.97
2023-04-26T06:08:20.269Z,101784.44
2023-04-26T06:10:21.907Z,101778.31
2023-04-26T06:12:23.476Z,101784.44
2023-04-26T06:16:30.735Z,101791.34
2023-04-26T06:18:32.225Z,101785.22
2023-04-26T06:20:33.703Z,101782.59
2023-04-26T06:22:35.160Z,101785.19
2023-04-26T06:24:36.685Z,101799.16
2023-04-26T06:26:38.133Z,101788.66
2023-04-26T06:28:41.088Z,101793.97
2023-04-26T06:30:43.751Z,101791.41
2023-04-26T06:32:45.987Z,101804.53
2023-04-26T06:34:47.537Z,101797.56
2023-04-26T06:36:49.102Z,101801.91
2023-04-26T06:38:50.623Z,101808.91
2023-04-26T06:40:52.112Z,101811.50
2023-04-26T06:42:55.064Z,101816.75
2023-04-26T06:44:56.614Z,101812.41
2023-04-26T06:46:58.244Z,101808.03
2023-04-26T06:49:01.603Z,101813.31
2023-04-26T06:51:06.772Z,101817.69
2023-04-26T06:53:08.487Z,101810.72
2023-04-26T06:55:10.437Z,101809.88
2023-04-26T06:57:11.990Z,101811.69
2023-04-26T06:59:13.446Z,101818.69
2023-04-26T07:01:14.956Z,101817.00
2023-04-26T07:03:16.911Z,101824.03
2023-04-26T07:05:18.664Z,101823.19
2023-04-26T07:07:20.620Z,101824.06
2023-04-26T07:09:22.911Z,101825.00
2023-04-26T07:11:25.971Z,101823.28
2023-04-26T07:13:28.078Z,101816.34
2023-04-26T07:15:29.824Z,101823.47
2023-04-26T07:17:31.344Z,101819.16
2023-04-26T07:19:32.900Z,101821.84
2023-04-26T07:21:34.562Z,101818.41
2023-04-26T07:23:36.624Z,101822.78
2023-04-26T07:25:38.111Z,101819.31
2023-04-26T07:27:39.603Z,101819.34
2023-04-26T07:29:41.133Z,101816.84
2023-04-26T07:31:43.012Z,101825.66
2023-04-26T07:33:44.624Z,101816.94
2023-04-26T07:35:53.879Z,101816.16
2023-04-26T07:37:55.354Z,101824.06
2023-04-26T07:39:56.783Z,101826.69
2023-04-26T07:41:58.278Z,101818.81
2023-04-26T07:44:00.052Z,101817.09
2023-04-26T07:46:02.478Z,101818.00
2023-04-26T07:48:04.278Z,101820.69
2023-04-26T07:50:06.472Z,101816.31
2023-04-26T07:52:10.980Z,101825.97
2023-04-26T07:54:12.480Z,101822.44
2023-04-26T07:56:14.003Z,101822.47
2023-04-26T07:58:15.598Z,101820.75
2023-04-26T08:00:18.902Z,101821.63
2023-04-26T08:02:23.121Z,101815.50
2023-04-26T08:04:36.683Z,101822.50
2023-04-26T08:06:39.261Z,101819.88
2023-04-26T08:08:44.868Z,101833.88
2023-04-26T08:10:46.500Z,101833.88
2023-04-26T08:12:47.977Z,101826.00
2023-04-26T08:14:49.520Z,101834.75
2023-04-26T08:16:51.680Z,101825.13
2023-04-26T08:18:53.252Z,101826.00
2023-04-26T08:20:55.353Z,101823.38
2023-04-26T08:22:57.176Z,101822.47
2023-04-26T08:24:58.672Z,101825.13
2023-04-26T08:27:00.169Z,101833.88
2023-04-26T08:29:02.111Z,101830.38
2023-04-26T08:31:04.392Z,101829.50
2023-04-26T08:33:06.919Z,101832.09
2023-04-26T08:35:09.935Z,101818.94
2023-04-26T08:37:11.965Z,101833.81
2023-04-26T08:39:13.601Z,101834.69
2023-04-26T08:41:21.532Z,101829.44
2023-04-26T08:43:23.222Z,101832.06
2023-04-26T08:45:25.057Z,101832.06
2023-04-26T08:47:52.772Z,101832.94
2023-04-26T08:49:59.761Z,101832.91
2023-04-26T08:52:04.533Z,101834.69
2023-04-26T08:54:06.375Z,101834.69
2023-04-26T08:56:10.751Z,101835.56
2023-04-26T08:58:12.564Z,101841.69
2023-04-26T09:00:15.993Z,101833.81
2023-04-26T09:02:19.958Z,101825.94
2023-04-26T09:04:21.708Z,101827.69
2023-04-26T09:06:24.343Z,101832.06
2023-04-26T09:08:27.551Z,101825.91
2023-04-26T09:10:30.636Z,101832.88
2023-04-26T09:12:32.412Z,101825.88
2023-04-26T09:14:34.726Z,101829.44
2023-04-26T09:16:39.032Z,101844.31
2023-04-26T09:18:54.979Z,101849.59
2023-04-26T09:21:08.059Z,101838.22
2023-04-26T09:23:10.452Z,101841.75
2023-04-26T09:25:13.620Z,101845.25
2023-04-26T09:27:16.449Z,101844.38
2023-04-26T09:29:19.131Z,101856.66
2023-04-26T09:31:39.003Z,101857.53
2023-04-26T09:33:58.455Z,101861.06
2023-04-26T09:36:14.047Z,101874.19
2023-04-26T09:38:19.251Z,101872.44
2023-04-26T09:40:21.975Z,101874.16
2023-04-26T09:42:23.512Z,101871.53
2023-04-26T09:44:25.563Z,101868.03
2023-04-26T09:46:27.137Z,101874.13
2023-04-26T09:48:34.730Z,101864.50
2023-04-26T09:50:36.312Z,101881.16
2023-04-26T09:52:44.455Z,101877.66
2023-04-26T09:54:53.910Z,101889.00
2023-04-26T09:57:02.699Z,101882.00
2023-04-26T09:59:05.730Z,101882.84
2023-04-26T10:01:08.754Z,101886.34
2023-04-26T10:03:12.167Z,101884.56
2023-04-26T10:05:14.039Z,101877.50
2023-04-26T10:07:17.898Z,101881.88
2023-04-26T10:09:19.495Z,101877.53
2023-04-26T10:11:22.533Z,101878.44
2023-04-26T10:13:24.102Z,101881.09
2023-04-26T10:15:26.522Z,101878.50
2023-04-26T10:17:29.246Z,101872.41
2023-04-26T10:19:32.905Z,101875.03
2023-04-26T10:21:39.491Z,101875.94
2023-04-26T10:23:41.550Z,101875.94
2023-04-26T10:25:43.289Z,101877.69
2023-04-26T10:27:45.065Z,101880.31
2023-04-26T10:29:55.169Z,101876.75
2023-04-26T10:32:02.990Z,101874.19
2023-04-26T10:34:21.427Z,101866.22
2023-04-26T10:36:22.965Z,101858.25
2023-04-26T10:38:24.485Z,101861.66
2023-04-26T10:40:32.103Z,101866.00
2023-04-26T10:42:33.935Z,101865.13
2023-04-26T10:44:42.709Z,101880.03
2023-04-26T10:46:50.964Z,101878.38
2023-04-26T10:48:52.848Z,101872.31
2023-04-26T10:51:11.993Z,101887.31
2023-04-26T10:53:13.567Z,101875.00
2023-04-26T10:55:44.346Z,101872.41
2023-04-26T10:57:52.651Z,101865.38
2023-04-26T11:00:10.756Z,101862.69
2023-04-26T11:02:12.962Z,101864.34
2023-04-26T11:04:14.693Z,101867.81
2023-04-26T11:06:16.258Z,101861.66
2023-04-26T11:08:25.049Z,101857.22
2023-04-26T11:10:26.474Z,101860.63
2023-04-26T11:12:27.957Z,101854.38
2023-04-26T11:14:30.338Z,101856.91
2023-04-26T11:16:32.308Z,101848.84
2023-04-26T11:18:35.062Z,101844.41
2023-04-26T11:20:36.606Z,101840.81
2023-04-26T11:22:41.899Z,101842.47
2023-04-26T11:24:43.468Z,101838.81
2023-04-26T11:26:51.621Z,101833.44
2023-04-26T11:28:53.336Z,101836.00
2023-04-26T11:30:55.921Z,101829.84
2023-04-26T11:32:58.909Z,101835.03
2023-04-26T11:35:00.948Z,101830.47
2023-04-26T11:37:04.757Z,101831.16
2023-04-26T11:39:07.112Z,101835.69
2023-04-26T11:41:08.615Z,101837.59
2023-04-26T11:43:11.724Z,101835.16
2023-04-26T11:45:16.476Z,101837.28
2023-04-26T11:47:19.828Z,101835.50
2023-04-26T11:49:21.665Z,101842.22
2023-04-26T11:51:24.074Z,101836.19
2023-04-26T11:53:26.020Z,101833.69
2023-04-26T11:55:28.765Z,101834.00
2023-04-26T11:57:34.455Z,101846.78
2023-04-26T11:59:35.914Z,101849.84
2023-04-26T12:01:37.463Z,101860.75
2023-04-26T12:03:39.749Z,101861.13
2023-04-26T12:05:41.637Z,101871.94
2023-04-26T12:07:43.120Z,101873.00
2023-04-26T12:09:44.657Z,101881.88
2023-04-26T12:11:56.550Z,101874.94
2023-04-26T12:13:59.566Z,101886.34
2023-04-26T12:18:12.286Z,101894.28
2023-04-26T12:20:14.466Z,101890.84
2023-04-26T12:22:21.864Z,101898.69
2023-04-26T12:24:30.356Z,101904.88
2023-04-26T12:26:44.909Z,101903.97
2023-04-26T12:28:46.827Z,101906.59
2023-04-26T12:30:48.698Z,101902.19
2023-04-26T12:32:50.275Z,101902.19
2023-04-26T12:34:51.827Z,101897.81
2023-04-26T12:36:53.494Z,101895.19
2023-04-26T12:38:56.336Z,101892.59
2023-04-26T12:40:58.069Z,101889.94
2023-04-26T12:42:59.669Z,101882.06
2023-04-26T12:45:01.261Z,101887.31
2023-04-26T12:47:02.811Z,101885.53
2023-04-26T12:49:04.619Z,101877.59
2023-04-26T12:51:06.983Z,101884.56
2023-04-26T12:53:08.491Z,101883.63
2023-04-26T12:55:14.929Z,101882.72
2023-04-26T12:57:16.448Z,101880.03
2023-04-26T12:59:17.926Z,101879.13
2023-04-26T13:01:19.503Z,101877.28
2023-04-26T13:03:21.274Z,101877.25
2023-04-26T13:05:24.859Z,101875.50
2023-04-26T13:07:26.770Z,101869.41
2023-04-26T13:09:28.416Z,101876.47
2023-04-26T13:11:29.934Z,101879.16
2023-04-26T13:13:42.383Z,101882.66
2023-04-26T13:15:45.815Z,101892.34
2023-04-26T13:17:47.459Z,101889.75
2023-04-26T13:19:49.110Z,101893.28
2023-04-26T13:21:52.470Z,101895.06
2023-04-26T13:23:53.972Z,101894.16
2023-04-26T13:25:55.471Z,101902.00
2023-04-26T13:27:57.047Z,101889.69
2023-04-26T13:29:58.905Z,101894.06
2023-04-26T13:32:01.350Z,101884.41
2023-04-26T13:34:03.637Z,101889.63
2023-04-26T13:36:05.455Z,101894.00
2023-04-26T13:38:07.096Z,101893.91
2023-04-26T13:40:11.257Z,101897.41
2023-04-26T13:42:16.804Z,101892.97
2023-04-26T13:44:19.907Z,101890.25
2023-04-26T13:46:22.414Z,101899.03
2023-04-26T13:48:24.029Z,101897.31
2023-04-26T13:50:25.899Z,101893.00
2023-04-26T13:52:28.023Z,101886.03
2023-04-26T13:54:29.653Z,101893.03
2023-04-26T13:56:32.110Z,101895.69
2023-04-26T13:58:33.604Z,101894.06
2023-04-26T14:00:35.169Z,101900.22
2023-04-26T14:02:36.915Z,101902.03
2023-04-26T14:04:39.946Z,101900.28
2023-04-26T14:06:41.819Z,101904.69
2023-04-26T14:08:43.620Z,101901.19
2023-04-26T14:10:45.131Z,101905.59
2023-04-26T14:12:46.686Z,101911.78
2023-04-26T14:14:48.302Z,101913.56
2023-04-26T14:16:49.820Z,101907.44
2023-04-26T14:18:52.043Z,101910.91
2023-04-26T14:20:53.566Z,101905.66
2023-04-26T14:22:55.042Z,101911.78
2023-04-26T14:24:56.660Z,101911.78
2023-04-26T14:27:01.519Z,101908.22
2023-04-26T14:29:04.475Z,101910.81
2023-04-26T14:31:06.005Z,101909.91
2023-04-26T14:33:07.502Z,101911.66
2023-04-26T14:35:09.187Z,101916.94
2023-04-26T14:37:10.782Z,101912.56
2023-04-26T14:39:12.285Z,101918.72
2023-04-26T14:41:18.534Z,101913.50
2023-04-26T14:43:20.030Z,101913.50
2023-04-26T14:45:27.772Z,101909.09
2023-04-26T14:47:34.981Z,101907.34
2023-04-26T14:49:36.686Z,101899.44
2023-04-26T14:51:38.160Z,101905.56
2023-04-26T14:53:39.912Z,101906.44
2023-04-26T14:55:41.420Z,101907.28
2023-04-26T14:57:42.927Z,101906.41
2023-04-26T14:59:44.481Z,101906.44
2023-04-26T15:01:46.109Z,101909.09
2023-04-26T15:03:47.762Z,101923.19
2023-04-26T15:05:49.419Z,101919.72
2023-04-26T15:07:51.932Z,101917.94
2023-04-26T15:09:53.418Z,101915.34
2023-04-26T15:11:54.870Z,101922.38
2023-04-26T15:13:56.393Z,101927.66
2023-04-26T15:15:57.910Z,101923.25
2023-04-26T15:17:59.579Z,101925.03
2023-04-26T15:20:01.494Z,101923.25
2023-04-26T15:22:02.990Z,101935.53
2023-04-26T15:24:04.963Z,101926.75
2023-04-26T15:26:06.473Z,101920.63
2023-04-26T15:28:07.996Z,101933.75
2023-04-26T15:30:09.818Z,101930.28
2023-04-26T15:32:12.207Z,101930.28
2023-04-26T15:34:13.657Z,101930.28
2023-04-26T15:36:16.427Z,101932.91
2023-04-26T15:38:17.889Z,101927.63
2023-04-26T15:40:20.872Z,101932.94
2023-04-26T15:42:22.339Z,101926.78
2023-04-26T15:44:23.784Z,101929.41
2023-04-26T15:46:25.463Z,101931.16
2023-04-26T15:48:27.025Z,101932.00
2023-04-26T15:50:28.480Z,101932.00
2023-04-26T15:52:30.390Z,101932.91
2023-04-26T15:54:31.871Z,101935.53
2023-04-26T15:56:33.360Z,101935.53
2023-04-26T15:58:39.334Z,101933.78
2023-04-26T16:00:42.594Z,101940.75
2023-04-26T16:02:45.069Z,101929.38
2023-04-26T16:04:47.163Z,101939.00
2023-04-26T16:06:48.773Z,101934.63
2023-04-26T16:08:50.464Z,101935.50
2023-04-26T16:10:52.101Z,101939.00
2023-04-26T16:12:53.588Z,101931.13
2023-04-26T16:14:55.059Z,101931.09
2023-04-26T16:16:58.612Z,101929.38
2023-04-26T16:19:00.144Z,101932.00
2023-04-26T16:21:09.637Z,101930.25
2023-04-26T16:23:11.488Z,101924.09
2023-04-26T16:25:13.091Z,101924.09
2023-04-26T16:27:14.690Z,101924.09
2023-04-26T16:29:16.398Z,101919.72
2023-04-26T16:31:18.755Z,101920.59
2023-04-26T16:33:22.869Z,101923.25
2023-04-26T16:35:24.871Z,101925.88
2023-04-26T16:37:26.473Z,101919.72
2023-04-26T16:39:28.623Z,101920.59
2023-04-26T16:41:30.101Z,101919.72
2023-04-26T16:43:32.617Z,101918.84
2023-04-26T16:45:34.070Z,101917.13
2023-04-26T16:47:36.386Z,101912.75
2023-04-26T16:49:37.953Z,101918.00
2023-04-26T16:51:39.433Z,101917.13
2023-04-26T16:53:41.067Z,101917.13
2023-04-26T16:55:42.603Z,101913.63
2023-04-26T16:57:44.126Z,101917.13
2023-04-26T16:59:45.679Z,101918.88
2023-04-26T17:01:50.599Z,101912.75
2023-04-26T17:03:52.379Z,101912.72
2023-04-26T17:05:54.006Z,101913.63
2023-04-26T17:07:55.951Z,101916.22
2023-04-26T17:09:57.391Z,101918.81
2023-04-26T17:11:59.017Z,101919.72
2023-04-26T17:14:00.591Z,101915.31
2023-04-26T17:16:02.146Z,101920.53
2023-04-26T17:18:04.613Z,101913.53
2023-04-26T17:20:09.323Z,101917.94
2023-04-26T17:22:11.859Z,101908.34
2023-04-26T17:24:13.561Z,101915.38
2023-04-26T17:26:15.146Z,101924.16
2023-04-26T17:28:17.033Z,101925.00
2023-04-26T17:30:20.448Z,101921.50
2023-04-26T17:32:22.076Z,101926.78
2023-04-26T17:34:23.690Z,101925.91
2023-04-26T17:36:25.278Z,101924.16
2023-04-26T17:38:26.758Z,101925.91
2023-04-26T17:40:28.227Z,101922.41
2023-04-26T17:42:29.805Z,101932.91
2023-04-26T17:44:31.265Z,101925.91
2023-04-26T17:46:32.729Z,101924.16
2023-04-26T17:48:34.208Z,101931.13
2023-04-26T17:50:35.719Z,101925.00
2023-04-26T17:52:37.801Z,101928.50
2023-04-26T17:54:39.243Z,101934.63
2023-04-26T17:56:40.900Z,101927.63
2023-04-26T17:58:42.425Z,101932.00
2023-04-26T18:00:43.860Z,101927.63
2023-04-26T18:02:45.435Z,101931.13
2023-04-26T18:04:47.571Z,101930.25
2023-04-26T18:06:49.358Z,101928.50
2023-04-26T18:08:50.968Z,101933.75
2023-04-26T18:10:53.977Z,101926.75
2023-04-26T18:12:55.530Z,101927.63
2023-04-26T18:14:56.974Z,101929.41
2023-04-26T18:16:58.509Z,101932.03
2023-04-26T18:19:00.058Z,101936.38
2023-04-26T18:21:01.522Z,101937.25
2023-04-26T18:23:03.456Z,101936.38
2023-04-26T18:25:05.537Z,101938.13
2023-04-26T18:27:07.257Z,101946.88
2023-04-26T18:29:08.705Z,101946.88
2023-04-26T18:31:10.216Z,101946.00
2023-04-26T18:33:11.900Z,101948.63
2023-04-26T18:35:13.488Z,101943.38
2023-04-26T18:37:15.155Z,101950.38
2023-04-26T18:39:16.736Z,101947.75
2023-04-26T18:41:18.264Z,101953.88
2023-04-26T18:43:19.971Z,101952.97
2023-04-26T18:45:21.749Z,101955.59
2023-04-26T18:47:23.262Z,101952.09
2023-04-26T18:49:26.868Z,101956.47
2023-04-26T18:51:28.543Z,101957.34
2023-04-26T18:53:30.043Z,101961.75
2023-04-26T18:55:31.550Z,101960.88
2023-04-26T18:57:33.123Z,101955.63
2023-04-26T18:59:34.642Z,101957.38
2023-04-26T19:01:36.258Z,101966.94
2023-04-26T19:03:38.109Z,101963.44
2023-04-26T19:05:43.044Z,101968.69
2023-04-26T19:07:45.602Z,101973.06
2023-04-26T19:09:54.306Z,101970.44
2023-04-26T19:11:56.271Z,101969.56
2023-04-26T19:13:57.749Z,101975.69
2023-04-26T19:15:59.354Z,101985.31
2023-04-26T19:18:01.031Z,101979.16
2023-04-26T19:20:03.017Z,101978.28
2023-04-26T19:22:04.587Z,101983.53
2023-04-26T19:24:06.545Z,101978.25
2023-04-26T19:26:14.517Z,101981.75
2023-04-26T19:28:16.127Z,101983.50
2023-04-26T19:30:17.938Z,101987.00
2023-04-26T19:32:20.002Z,101986.09
2023-04-26T19:34:22.297Z,101986.94
2023-04-26T19:36:24.956Z,101993.06
2023-04-26T19:38:26.592Z,101987.81
2023-04-26T19:40:28.155Z,101987.81
2023-04-26T19:42:29.712Z,101986.06
2023-04-26T19:44:31.368Z,101993.00
2023-04-26T19:46:32.915Z,101991.25
2023-04-26T19:48:34.507Z,101996.50
2023-04-26T19:50:43.776Z,101985.13
2023-04-26T19:52:45.681Z,101990.38
2023-04-26T19:54:47.182Z,101987.72
2023-04-26T19:56:48.784Z,101986.81
2023-04-26T19:58:50.501Z,101995.56
2023-04-26T20:00:52.007Z,101998.16
2023-04-26T20:02:53.670Z,101999.03
2023-04-26T20:04:55.180Z,101999.88
2023-04-26T20:06:57.266Z,102000.69
2023-04-26T20:08:59.385Z,101994.53
2023-04-26T20:11:05.241Z,101994.53
2023-04-26T20:13:07.192Z,101999.78
2023-04-26T20:15:09.407Z,102005.84
2023-04-26T20:17:10.959Z,102002.34
2023-04-26T20:19:12.944Z,102007.63
2023-04-26T20:21:14.469Z,102001.53
2023-04-26T20:23:16.365Z,101999.72
2023-04-26T20:25:20.027Z,101997.97
2023-04-26T20:27:21.613Z,102006.72
2023-04-26T20:29:23.910Z,102002.31
2023-04-26T20:31:25.428Z,102018.00
2023-04-26T20:33:26.986Z,102014.50
2023-04-26T20:35:28.605Z,102014.50
2023-04-26T20:37:30.095Z,102013.59
2023-04-26T20:39:33.755Z,102017.09
2023-04-26T20:41:36.152Z,102019.69
2023-04-26T20:43:37.598Z,102016.19
2023-04-26T20:45:41.297Z,102019.66
2023-04-26T20:47:42.921Z,102025.72
2023-04-26T20:49:44.376Z,102023.09
2023-04-26T20:51:45.890Z,102026.56
2023-04-26T20:53:47.324Z,102023.00
2023-04-26T20:55:52.299Z,102029.06
2023-04-26T20:57:53.722Z,102031.66
2023-04-26T20:59:55.324Z,102023.72
2023-04-26T21:01:57.008Z,102028.94
2023-04-26T21:03:58.886Z,102025.34
2023-04-26T21:06:00.543Z,102030.53
2023-04-26T21:08:02.015Z,102029.63
2023-04-26T21:10:04.358Z,102029.59
2023-04-26T21:12:06.630Z,102033.06
2023-04-26T21:14:09.107Z,102030.41
2023-04-26T21:16:10.804Z,102035.56
2023-04-26T21:18:12.369Z,102027.63
2023-04-26T21:20:13.970Z,102037.19
2023-04-26T21:22:15.834Z,102031.03
2023-04-26T21:24:17.533Z,102036.25
2023-04-26T21:26:18.989Z,102037.06
2023-04-26T21:28:20.441Z,102043.16
2023-04-26T21:30:22.148Z,102039.63
2023-04-26T21:32:23.655Z,102044.94
2023-04-26T21:34:25.151Z,102043.19
2023-04-26T21:36:26.782Z,102033.56
2023-04-26T21:38:28.280Z,102044.06
2023-04-26T21:40:29.767Z,102036.22
2023-04-26T21:42:31.587Z,102039.72
2023-04-26T21:44:33.149Z,102037.09
2023-04-26T21:46:34.728Z,102041.44
2023-04-26T21:48:36.399Z,102042.34
2023-04-26T21:50:38.291Z,102040.59
2023-04-26T21:52:39.868Z,102043.22
2023-04-26T21:54:41.356Z,102040.59
2023-04-26T21:56:42.800Z,102039.72
2023-04-26T21:58:44.320Z,102045.81
2023-04-26T22:00:46.671Z,102051.91
2023-04-26T22:02:48.393Z,102042.25
2023-04-26T22:04:49.919Z,102039.63
2023-04-26T22:06:51.519Z,102043.09
2023-04-26T22:08:52.970Z,102046.53
2023-04-26T22:10:54.512Z,102049.16
2023-04-26T22:12:56.266Z,102042.19
2023-04-26T22:14:57.934Z,102043.09
2023-04-26T22:16:59.431Z,102048.31
2023-04-26T22:19:00.922Z,102043.88
2023-04-26T22:21:02.400Z,102047.31
2023-04-26T22:23:03.868Z,102048.97
2023-04-26T22:25:05.947Z,102055.00
2023-04-26T22:27:07.665Z,102049.69
2023-04-26T22:29:09.395Z,102050.50
2023-04-26T22:31:11.041Z,102050.44
2023-04-26T22:33:12.623Z,102060.00
2023-04-26T22:35:14.063Z,102058.22
2023-04-26T22:37:21.401Z,102049.47
2023-04-26T22:39:23.219Z,102066.88
2023-04-26T22:41:24.727Z,102065.91
2023-04-26T22:43:26.378Z,102060.66
2023-04-26T22:45:28.011Z,102069.38
2023-04-26T22:47:29.561Z,102069.34
2023-04-26T22:49:31.176Z,102066.66
2023-04-26T22:51:32.937Z,102066.59
2023-04-26T22:53:34.431Z,102067.47
2023-04-26T22:55:35.964Z,102066.56
2023-04-26T22:57:37.653Z,102061.34
2023-04-26T22:59:39.181Z,102064.78
2023-04-26T23:01:40.970Z,102067.38
2023-04-26T23:03:42.681Z,102071.66
2023-04-26T23:05:44.294Z,102066.34
2023-04-26T23:07:45.956Z,102079.31
2023-04-26T23:09:47.560Z,102077.47
2023-04-26T23:11:49.047Z,102081.72
2023-04-26T23:13:52.666Z,102080.81
2023-04-26T23:15:54.145Z,102081.66
2023-04-26T23:17:55.699Z,102087.69
2023-04-26T23:19:58.487Z,102078.84
2023-04-26T23:22:00.182Z,102085.88
2023-04-26T23:24:01.731Z,102079.72